sensor_id;sensor_type;location;lat;lon;timestamp;pressure;altitude;pressure_sealevel;temperature;humidity
40245;BME280;25963;42.694;23.600;2023-03-21T00:01:27;95076.47;;;10.23;66.23
40245;BME280;25963;42.694;23.600;2023-03-21T00:03:52;95065.41;;;10.15;66.39
40245;BME280;25963;42.694;23.600;2023-03-21T00:06:18;95058.00;;;10.23;66.56
40245;BME280;25963;42.694;23.600;2023-03-21T00:08:43;95066.34;;;10.20;66.73
40245;BME280;25963;42.694;23.600;2023-03-21T00:11:10;95057.16;;;10.04;67.23
40245;BME280;25963;42.694;23.600;2023-03-21T00:13:36;95051.44;;;10.07;67.34
40245;BME280;25963;42.694;23.600;2023-03-21T00:18:34;95050.44;;;10.09;66.46
40245;BME280;25963;42.694;23.600;2023-03-21T00:21:06;95051.09;;;10.04;66.22
40245;BME280;25963;42.694;23.600;2023-03-21T00:23:33;95037.47;;;10.07;67.32
40245;BME280;25963;42.694;23.600;2023-03-21T00:25:59;95032.47;;;9.99;67.19
40245;BME280;25963;42.694;23.600;2023-03-21T00:28:25;95042.97;;;10.05;68.03
40245;BME280;25963;42.694;23.600;2023-03-21T00:30:56;95044.56;;;10.06;68.78
40245;BME280;25963;42.694;23.600;2023-03-21T00:33:22;95037.22;;;9.90;69.50
40245;BME280;25963;42.694;23.600;2023-03-21T00:35:49;95026.88;;;9.89;69.30
40245;BME280;25963;42.694;23.600;2023-03-21T00:38:17;95029.16;;;9.85;70.21
40245;BME280;25963;42.694;23.600;2023-03-21T00:40:43;95015.72;;;9.68;70.80
40245;BME280;25963;42.694;23.600;2023-03-21T00:43:08;95012.28;;;9.68;71.10
40245;BME280;25963;42.694;23.600;2023-03-21T00:45:36;95023.41;;;9.70;70.63
40245;BME280;25963;42.694;23.600;2023-03-21T00:48:01;95024.59;;;9.74;71.30
40245;BME280;25963;42.694;23.600;2023-03-21T00:50:27;95030.44;;;9.76;70.79
40245;BME280;25963;42.694;23.600;2023-03-21T00:52:52;95027.38;;;9.79;70.36
40245;BME280;25963;42.694;23.600;2023-03-21T00:55:18;95026.53;;;9.85;70.29
40245;BME280;25963;42.694;23.600;2023-03-21T00:57:44;95038.22;;;9.89;70.12
40245;BME280;25963;42.694;23.600;2023-03-21T01:00:11;95033.34;;;9.93;70.73
40245;BME280;25963;42.694;23.600;2023-03-21T01:02:37;95040.25;;;9.94;70.69
40245;BME280;25963;42.694;23.600;2023-03-21T01:05:08;95045.72;;;9.92;70.78
40245;BME280;25963;42.694;23.600;2023-03-21T01:07:33;95021.47;;;9.83;71.20
40245;BME280;25963;42.694;23.600;2023-03-21T01:09:59;95031.19;;;9.83;72.93
40245;BME280;25963;42.694;23.600;2023-03-21T01:12:25;95044.97;;;9.85;71.98
40245;BME280;25963;42.694;23.600;2023-03-21T01:14:51;95047.66;;;9.78;71.30
40245;BME280;25963;42.694;23.600;2023-03-21T01:17:17;95045.22;;;9.77;71.68
40245;BME280;25963;42.694;23.600;2023-03-21T01:19:42;95052.16;;;9.71;72.88
40245;BME280;25963;42.694;23.600;2023-03-21T01:22:08;95038.63;;;9.68;73.71
40245;BME280;25963;42.694;23.600;2023-03-21T01:24:33;95043.38;;;9.52;73.81
40245;BME280;25963;42.694;23.600;2023-03-21T01:27:01;95043.09;;;9.35;76.16
40245;BME280;25963;42.694;23.600;2023-03-21T01:29:26;95042.09;;;9.30;77.73
40245;BME280;25963;42.694;23.600;2023-03-21T01:31:52;95044.31;;;9.33;77.47
40245;BME280;25963;42.694;23.600;2023-03-21T01:34:17;95045.50;;;9.37;76.23
40245;BME280;25963;42.694;23.600;2023-03-21T01:36:42;95045.75;;;9.29;75.51
40245;BME280;25963;42.694;23.600;2023-03-21T01:39:08;95026.81;;;9.13;76.78
40245;BME280;25963;42.694;23.600;2023-03-21T01:41:39;95030.91;;;9.09;78.08
40245;BME280;25963;42.694;23.600;2023-03-21T01:44:06;95032.75;;;9.02;79.01
40245;BME280;25963;42.694;23.600;2023-03-21T01:49:19;95025.94;;;8.88;79.44
40245;BME280;25963;42.694;23.600;2023-03-21T01:51:53;95006.00;;;8.74;80.08
40245;BME280;25963;42.694;23.600;2023-03-21T01:54:24;95013.47;;;8.70;81.67
40245;BME280;25963;42.694;23.600;2023-03-21T01:56:54;95022.16;;;8.77;82.32
40245;BME280;25963;42.694;23.600;2023-03-21T01:59:27;95016.72;;;8.65;81.36
40245;BME280;25963;42.694;23.600;2023-03-21T02:01:54;95014.75;;;8.54;81.92
40245;BME280;25963;42.694;23.600;2023-03-21T02:04:21;95020.88;;;8.41;84.17
40245;BME280;25963;42.694;23.600;2023-03-21T02:06:58;95010.34;;;8.35;84.02
40245;BME280;25963;42.694;23.600;2023-03-21T02:09:27;95033.59;;;8.38;83.90
40245;BME280;25963;42.694;23.600;2023-03-21T02:11:56;95023.06;;;8.38;83.06
40245;BME280;25963;42.694;23.600;2023-03-21T02:14:21;95022.47;;;8.42;81.85
40245;BME280;25963;42.694;23.600;2023-03-21T02:16:58;95019.84;;;8.36;82.14
40245;BME280;25963;42.694;23.600;2023-03-21T02:22:52;95031.38;;;8.28;81.09
40245;BME280;25963;42.694;23.600;2023-03-21T02:29:22;95028.97;;;8.20;80.00
40245;BME280;25963;42.694;23.600;2023-03-21T02:31:35;95030.75;;;8.33;80.79
40245;BME280;25963;42.694;23.600;2023-03-21T02:45:14;95031.75;;;8.52;83.04
40245;BME280;25963;42.694;23.600;2023-03-21T02:47:45;95029.75;;;8.47;83.69
40245;BME280;25963;42.694;23.600;2023-03-21T02:52:55;94995.41;;;8.22;85.13
40245;BME280;25963;42.694;23.600;2023-03-21T02:55:26;95020.84;;;8.35;84.41
40245;BME280;25963;42.694;23.600;2023-03-21T02:57:55;95019.44;;;8.39;83.63
40245;BME280;25963;42.694;23.600;2023-03-21T03:00:24;95023.28;;;8.36;85.58
40245;BME280;25963;42.694;23.600;2023-03-21T03:02:50;94997.44;;;8.20;86.51
40245;BME280;25963;42.694;23.600;2023-03-21T03:05:28;95019.47;;;8.26;86.01
40245;BME280;25963;42.694;23.600;2023-03-21T03:13:37;95010.00;;;7.98;87.94
40245;BME280;25963;42.694;23.600;2023-03-21T03:18:54;95025.78;;;7.85;87.19
40245;BME280;25963;42.694;23.600;2023-03-21T03:21:29;95018.50;;;7.80;88.33
40245;BME280;25963;42.694;23.600;2023-03-21T03:24:35;95029.03;;;7.73;90.18
40245;BME280;25963;42.694;23.600;2023-03-21T03:27:03;95024.19;;;7.64;91.35
40245;BME280;25963;42.694;23.600;2023-03-21T03:29:33;95029.44;;;7.57;90.16
40245;BME280;25963;42.694;23.600;2023-03-21T03:34:35;95016.28;;;7.44;92.02
40245;BME280;25963;42.694;23.600;2023-03-21T03:37:07;94988.41;;;7.29;92.58
40245;BME280;25963;42.694;23.600;2023-03-21T03:39:39;95010.66;;;7.34;92.00
40245;BME280;25963;42.694;23.600;2023-03-21T03:42:23;95012.88;;;7.37;92.43
40245;BME280;25963;42.694;23.600;2023-03-21T03:44:49;95015.09;;;7.40;91.10
40245;BME280;25963;42.694;23.600;2023-03-21T03:47:40;95018.91;;;7.30;91.12
40245;BME280;25963;42.694;23.600;2023-03-21T03:52:52;95022.13;;;7.26;90.38
40245;BME280;25963;42.694;23.600;2023-03-21T03:55:21;95018.47;;;7.20;90.07
40245;BME280;25963;42.694;23.600;2023-03-21T03:57:48;95022.91;;;7.06;90.56
40245;BME280;25963;42.694;23.600;2023-03-21T04:00:15;95031.38;;;7.08;91.09
40245;BME280;25963;42.694;23.600;2023-03-21T04:02:41;95040.25;;;7.01;91.79
40245;BME280;25963;42.694;23.600;2023-03-21T04:05:07;95042.25;;;6.92;92.38
40245;BME280;25963;42.694;23.600;2023-03-21T04:07:33;95027.28;;;6.79;92.89
40245;BME280;25963;42.694;23.600;2023-03-21T04:09:58;95039.38;;;6.80;92.99
40245;BME280;25963;42.694;23.600;2023-03-21T04:12:24;95032.88;;;6.70;93.74
40245;BME280;25963;42.694;23.600;2023-03-21T04:14:50;95032.69;;;6.71;94.02
40245;BME280;25963;42.694;23.600;2023-03-21T04:17:17;95040.56;;;6.71;92.78
40245;BME280;25963;42.694;23.600;2023-03-21T04:19:43;95036.50;;;6.69;92.72
40245;BME280;25963;42.694;23.600;2023-03-21T04:22:10;95036.88;;;6.59;93.16
40245;BME280;25963;42.694;23.600;2023-03-21T04:24:37;95026.03;;;6.27;94.80
40245;BME280;25963;42.694;23.600;2023-03-21T04:27:03;95034.56;;;6.43;94.43
40245;BME280;25963;42.694;23.600;2023-03-21T04:29:32;95018.66;;;6.03;96.64
40245;BME280;25963;42.694;23.600;2023-03-21T04:31:57;95038.69;;;6.17;96.28
40245;BME280;25963;42.694;23.600;2023-03-21T04:34:24;95004.25;;;5.92;96.22
40245;BME280;25963;42.694;23.600;2023-03-21T04:36:53;95031.19;;;6.07;96.86
40245;BME280;25963;42.694;23.600;2023-03-21T04:39:18;95015.84;;;6.04;96.44
40245;BME280;25963;42.694;23.600;2023-03-21T04:41:45;95028.22;;;6.17;96.93
40245;BME280;25963;42.694;23.600;2023-03-21T04:44:11;95023.16;;;6.15;96.85
40245;BME280;25963;42.694;23.600;2023-03-21T04:46:38;95027.34;;;6.10;98.01
40245;BME280;25963;42.694;23.600;2023-03-21T04:49:04;95020.50;;;6.09;97.39
40245;BME280;25963;42.694;23.600;2023-03-21T04:54:42;95032.28;;;6.26;97.55
40245;BME280;25963;42.694;23.600;2023-03-21T04:57:08;95033.13;;;6.40;95.55
40245;BME280;25963;42.694;23.600;2023-03-21T04:59:33;95031.25;;;6.62;95.08
40245;BME280;25963;42.694;23.600;2023-03-21T05:01:59;95033.72;;;6.83;94.77
40245;BME280;25963;42.694;23.600;2023-03-21T05:04:25;95037.84;;;7.06;92.40
40245;BME280;25963;42.694;23.600;2023-03-21T05:06:52;95023.31;;;7.23;88.78
40245;BME280;25963;42.694;23.600;2023-03-21T05:09:18;95036.66;;;7.35;87.99
40245;BME280;25963;42.694;23.600;2023-03-21T05:11:43;95034.03;;;7.42;88.16
40245;BME280;25963;42.694;23.600;2023-03-21T05:14:13;95046.00;;;7.58;85.79
40245;BME280;25963;42.694;23.600;2023-03-21T05:16:41;95039.13;;;7.63;88.36
40245;BME280;25963;42.694;23.600;2023-03-21T05:19:09;95042.34;;;7.65;89.55
40245;BME280;25963;42.694;23.600;2023-03-21T05:21:39;95038.69;;;7.60;88.31
40245;BME280;25963;42.694;23.600;2023-03-21T05:24:07;95027.41;;;7.46;88.01
40245;BME280;25963;42.694;23.600;2023-03-21T05:26:36;95048.22;;;7.54;87.76
40245;BME280;25963;42.694;23.600;2023-03-21T05:29:02;95052.63;;;7.53;89.17
40245;BME280;25963;42.694;23.600;2023-03-21T05:31:28;95059.09;;;7.38;90.05
40245;BME280;25963;42.694;23.600;2023-03-21T05:33:53;95055.66;;;7.30;92.14
40245;BME280;25963;42.694;23.600;2023-03-21T05:36:18;95029.69;;;6.88;91.81
40245;BME280;25963;42.694;23.600;2023-03-21T05:38:44;95061.66;;;7.11;92.20
40245;BME280;25963;42.694;23.600;2023-03-21T05:41:12;95056.84;;;7.21;92.50
40245;BME280;25963;42.694;23.600;2023-03-21T05:43:38;95054.00;;;7.29;92.45
40245;BME280;25963;42.694;23.600;2023-03-21T05:46:03;95049.78;;;7.22;92.02
40245;BME280;25963;42.694;23.600;2023-03-21T05:48:29;95056.06;;;7.34;93.42
40245;BME280;25963;42.694;23.600;2023-03-21T05:50:54;95046.97;;;7.37;92.33
40245;BME280;25963;42.694;23.600;2023-03-21T05:53:20;95040.94;;;7.43;95.15
40245;BME280;25963;42.694;23.600;2023-03-21T05:55:46;95041.72;;;7.43;95.10
40245;BME280;25963;42.694;23.600;2023-03-21T05:58:11;95041.91;;;7.42;93.65
40245;BME280;25963;42.694;23.600;2023-03-21T06:00:37;95042.78;;;7.69;95.23
40245;BME280;25963;42.694;23.600;2023-03-21T06:03:02;95032.66;;;7.72;93.89
40245;BME280;25963;42.694;23.600;2023-03-21T06:05:28;95031.84;;;7.92;94.67
40245;BME280;25963;42.694;23.600;2023-03-21T06:07:53;95029.19;;;8.12;92.71
40245;BME280;25963;42.694;23.600;2023-03-21T06:10:19;95009.59;;;8.14;92.93
40245;BME280;25963;42.694;23.600;2023-03-21T06:12:45;95029.38;;;8.23;94.37
40245;BME280;25963;42.694;23.600;2023-03-21T06:15:10;95015.38;;;8.43;91.92
40245;BME280;25963;42.694;23.600;2023-03-21T06:17:36;95009.47;;;8.61;91.65
40245;BME280;25963;42.694;23.600;2023-03-21T06:20:02;95024.00;;;8.63;91.26
40245;BME280;25963;42.694;23.600;2023-03-21T06:22:32;95009.06;;;8.57;90.54
40245;BME280;25963;42.694;23.600;2023-03-21T06:24:57;94999.31;;;8.71;91.77
40245;BME280;25963;42.694;23.600;2023-03-21T06:27:23;95013.47;;;9.08;91.88
40245;BME280;25963;42.694;23.600;2023-03-21T06:29:49;95019.66;;;9.27;90.27
40245;BME280;25963;42.694;23.600;2023-03-21T06:32:14;95014.50;;;9.39;89.02
40245;BME280;25963;42.694;23.600;2023-03-21T06:34:40;95011.63;;;9.47;87.38
40245;BME280;25963;42.694;23.600;2023-03-21T06:37:06;95002.78;;;9.35;86.71
40245;BME280;25963;42.694;23.600;2023-03-21T06:39:32;95006.03;;;9.37;88.20
40245;BME280;25963;42.694;23.600;2023-03-21T06:41:58;95012.66;;;9.71;85.02
40245;BME280;25963;42.694;23.600;2023-03-21T06:44:23;95024.63;;;9.67;84.09
40245;BME280;25963;42.694;23.600;2023-03-21T06:46:50;95030.91;;;9.41;85.52
40245;BME280;25963;42.694;23.600;2023-03-21T06:49:16;95029.56;;;9.57;85.92
40245;BME280;25963;42.694;23.600;2023-03-21T06:51:41;95019.41;;;9.86;85.13
40245;BME280;25963;42.694;23.600;2023-03-21T06:54:07;95016.91;;;10.16;91.23
40245;BME280;25963;42.694;23.600;2023-03-21T06:56:33;95022.47;;;10.33;81.34
40245;BME280;25963;42.694;23.600;2023-03-21T06:58:58;95024.66;;;10.54;81.96
40245;BME280;25963;42.694;23.600;2023-03-21T07:01:24;95025.81;;;10.58;81.10
40245;BME280;25963;42.694;23.600;2023-03-21T07:03:52;95029.19;;;10.84;80.47
40245;BME280;25963;42.694;23.600;2023-03-21T07:06:18;95008.75;;;10.61;79.19
40245;BME280;25963;42.694;23.600;2023-03-21T07:08:43;95044.13;;;10.90;76.50
40245;BME280;25963;42.694;23.600;2023-03-21T07:11:09;95038.41;;;10.93;78.56
40245;BME280;25963;42.694;23.600;2023-03-21T07:13:35;95039.47;;;11.04;76.36
40245;BME280;25963;42.694;23.600;2023-03-21T07:16:00;95040.22;;;11.11;76.14
40245;BME280;25963;42.694;23.600;2023-03-21T07:18:26;95034.88;;;11.29;76.82
40245;BME280;25963;42.694;23.600;2023-03-21T07:20:51;95031.34;;;11.35;77.86
40245;BME280;25963;42.694;23.600;2023-03-21T07:23:22;95033.78;;;11.37;74.52
40245;BME280;25963;42.694;23.600;2023-03-21T07:25:49;95029.91;;;11.63;74.70
40245;BME280;25963;42.694;23.600;2023-03-21T07:28:15;95035.13;;;11.81;72.04
40245;BME280;25963;42.694;23.600;2023-03-21T07:30:42;95036.88;;;11.87;68.87
40245;BME280;25963;42.694;23.600;2023-03-21T07:33:08;95014.03;;;12.05;76.97
40245;BME280;25963;42.694;23.600;2023-03-21T07:35:34;95028.75;;;12.48;75.20
40245;BME280;25963;42.694;23.600;2023-03-21T07:38:04;95017.44;;;12.64;67.45
40245;BME280;25963;42.694;23.600;2023-03-21T07:40:30;95031.19;;;12.90;65.63
40245;BME280;25963;42.694;23.600;2023-03-21T07:42:56;95029.94;;;12.92;67.58
40245;BME280;25963;42.694;23.600;2023-03-21T07:45:22;95030.22;;;13.08;64.86
40245;BME280;25963;42.694;23.600;2023-03-21T07:47:49;95028.00;;;13.16;65.13
40245;BME280;25963;42.694;23.600;2023-03-21T07:50:15;95023.50;;;13.29;66.40
40245;BME280;25963;42.694;23.600;2023-03-21T07:52:41;95030.16;;;13.31;65.47
40245;BME280;25963;42.694;23.600;2023-03-21T07:55:06;95026.31;;;13.39;63.56
40245;BME280;25963;42.694;23.600;2023-03-21T07:57:32;95029.59;;;13.46;67.45
40245;BME280;25963;42.694;23.600;2023-03-21T07:59:58;95030.59;;;13.57;63.03
40245;BME280;25963;42.694;23.600;2023-03-21T08:02:24;95023.06;;;13.65;61.37
40245;BME280;25963;42.694;23.600;2023-03-21T08:04:49;95007.19;;;13.82;61.71
40245;BME280;25963;42.694;23.600;2023-03-21T08:07:15;95015.69;;;14.01;65.36
40245;BME280;25963;42.694;23.600;2023-03-21T08:09:42;95015.41;;;14.20;60.66
40245;BME280;25963;42.694;23.600;2023-03-21T08:12:08;95006.66;;;14.36;60.29
40245;BME280;25963;42.694;23.600;2023-03-21T08:14:34;95001.09;;;14.54;58.65
40245;BME280;25963;42.694;23.600;2023-03-21T08:17:01;95008.56;;;14.79;62.40
40245;BME280;25963;42.694;23.600;2023-03-21T08:19:27;95006.88;;;14.95;63.33
40245;BME280;25963;42.694;23.600;2023-03-21T08:21:53;94990.84;;;14.85;57.40
40245;BME280;25963;42.694;23.600;2023-03-21T08:24:18;94999.72;;;14.96;56.63
40245;BME280;25963;42.694;23.600;2023-03-21T08:26:44;94997.81;;;14.91;56.89
40245;BME280;25963;42.694;23.600;2023-03-21T08:29:11;95016.34;;;15.08;56.94
40245;BME280;25963;42.694;23.600;2023-03-21T08:31:38;95014.06;;;15.22;57.10
40245;BME280;25963;42.694;23.600;2023-03-21T08:34:04;95013.69;;;15.35;57.32
40245;BME280;25963;42.694;23.600;2023-03-21T08:36:30;95009.09;;;15.52;60.39
40245;BME280;25963;42.694;23.600;2023-03-21T08:38:56;95011.97;;;15.51;59.73
40245;BME280;25963;42.694;23.600;2023-03-21T08:41:33;95006.59;;;15.68;61.28
40245;BME280;25963;42.694;23.600;2023-03-21T08:43:58;95011.31;;;15.66;61.02
40245;BME280;25963;42.694;23.600;2023-03-21T08:46:24;94990.13;;;15.71;57.48
40245;BME280;25963;42.694;23.600;2023-03-21T08:48:49;94988.13;;;15.88;61.92
40245;BME280;25963;42.694;23.600;2023-03-21T08:51:15;94998.72;;;16.15;57.81
40245;BME280;25963;42.694;23.600;2023-03-21T08:53:40;95004.94;;;16.31;57.65
40245;BME280;25963;42.694;23.600;2023-03-21T08:56:06;94995.28;;;16.20;52.64
40245;BME280;25963;42.694;23.600;2023-03-21T08:58:32;94987.69;;;16.44;56.43
40245;BME280;25963;42.694;23.600;2023-03-21T09:00:57;94996.56;;;16.60;50.09
40245;BME280;25963;42.694;23.600;2023-03-21T09:03:23;94991.81;;;16.67;54.63
40245;BME280;25963;42.694;23.600;2023-03-21T09:05:51;94994.94;;;16.54;51.24
40245;BME280;25963;42.694;23.600;2023-03-21T09:08:18;94997.06;;;16.57;51.44
40245;BME280;25963;42.694;23.600;2023-03-21T09:10:56;94994.44;;;16.62;51.40
40245;BME280;25963;42.694;23.600;2023-03-21T09:13:22;94985.69;;;16.66;50.15
40245;BME280;25963;42.694;23.600;2023-03-21T09:15:48;94969.69;;;16.61;50.42
40245;BME280;25963;42.694;23.600;2023-03-21T09:18:13;94980.78;;;16.48;52.00
40245;BME280;25963;42.694;23.600;2023-03-21T09:20:46;94975.47;;;16.48;49.45
40245;BME280;25963;42.694;23.600;2023-03-21T09:23:13;94975.16;;;16.34;49.93
40245;BME280;25963;42.694;23.600;2023-03-21T09:25:39;94966.63;;;16.37;52.37
40245;BME280;25963;42.694;23.600;2023-03-21T09:28:05;94976.13;;;16.23;50.50
40245;BME280;25963;42.694;23.600;2023-03-21T09:30:33;94972.44;;;16.29;53.83
40245;BME280;25963;42.694;23.600;2023-03-21T09:33:00;94964.22;;;16.31;54.74
40245;BME280;25963;42.694;23.600;2023-03-21T09:35:27;94965.50;;;16.23;51.95
40245;BME280;25963;42.694;23.600;2023-03-21T09:37:53;94968.72;;;15.88;50.04
40245;BME280;25963;42.694;23.600;2023-03-21T09:40:22;94963.81;;;16.12;53.99
40245;BME280;25963;42.694;23.600;2023-03-21T09:45:42;94940.06;;;16.42;55.91
40245;BME280;25963;42.694;23.600;2023-03-21T09:49:00;94941.97;;;16.52;55.14
40245;BME280;25963;42.694;23.600;2023-03-21T09:51:19;94943.88;;;16.67;55.20
40245;BME280;25963;42.694;23.600;2023-03-21T09:53:47;94929.25;;;16.75;54.62
40245;BME280;25963;42.694;23.600;2023-03-21T09:56:14;94938.66;;;16.93;51.74
40245;BME280;25963;42.694;23.600;2023-03-21T09:58:48;94943.38;;;16.75;48.10
40245;BME280;25963;42.694;23.600;2023-03-21T10:01:28;94933.56;;;16.81;46.64
40245;BME280;25963;42.694;23.600;2023-03-21T10:03:59;94897.38;;;16.95;49.87
40245;BME280;25963;42.694;23.600;2023-03-21T10:06:27;94919.56;;;17.37;48.29
40245;BME280;25963;42.694;23.600;2023-03-21T10:08:57;94917.44;;;17.49;47.73
40245;BME280;25963;42.694;23.600;2023-03-21T10:11:27;94919.56;;;17.72;52.39
40245;BME280;25963;42.694;23.600;2023-03-21T10:14:02;94910.50;;;17.99;52.33
40245;BME280;25963;42.694;23.600;2023-03-21T10:16:32;94911.25;;;18.15;46.99
40245;BME280;25963;42.694;23.600;2023-03-21T10:19:02;94910.72;;;18.28;46.59
40245;BME280;25963;42.694;23.600;2023-03-21T10:21:29;94905.06;;;18.40;46.01
40245;BME280;25963;42.694;23.600;2023-03-21T10:23:56;94898.66;;;18.36;46.57
40245;BME280;25963;42.694;23.600;2023-03-21T10:26:24;94866.59;;;18.36;47.48
40245;BME280;25963;42.694;23.600;2023-03-21T10:28:54;94885.22;;;18.61;48.31
40245;BME280;25963;42.694;23.600;2023-03-21T10:31:23;94883.34;;;18.57;41.76
40245;BME280;25963;42.694;23.600;2023-03-21T10:33:51;94876.88;;;18.68;45.65
40245;BME280;25963;42.694;23.600;2023-03-21T10:36:26;94877.69;;;18.79;48.39
40245;BME280;25963;42.694;23.600;2023-03-21T10:39:22;94884.00;;;18.93;43.37
40245;BME280;25963;42.694;23.600;2023-03-21T10:41:49;94881.78;;;19.45;44.41
40245;BME280;25963;42.694;23.600;2023-03-21T10:44:18;94877.38;;;19.59;39.92
40245;BME280;25963;42.694;23.600;2023-03-21T10:47:05;94873.56;;;19.70;42.61
40245;BME280;25963;42.694;23.600;2023-03-21T10:49:32;94874.75;;;19.88;42.57
40245;BME280;25963;42.694;23.600;2023-03-21T10:52:01;94874.16;;;20.20;44.22
40245;BME280;25963;42.694;23.600;2023-03-21T10:54:28;94880.91;;;20.37;44.51
40245;BME280;25963;42.694;23.600;2023-03-21T10:57:03;94873.28;;;20.49;42.18
40245;BME280;25963;42.694;23.600;2023-03-21T10:59:45;94875.81;;;20.40;42.76
40245;BME280;25963;42.694;23.600;2023-03-21T11:02:20;94874.94;;;20.21;41.11
40245;BME280;25963;42.694;23.600;2023-03-21T11:04:48;94863.56;;;19.81;41.92
40245;BME280;25963;42.694;23.600;2023-03-21T11:07:14;94848.38;;;19.71;42.09
40245;BME280;25963;42.694;23.600;2023-03-21T11:09:52;94863.50;;;19.86;42.37
40245;BME280;25963;42.694;23.600;2023-03-21T11:14:53;94856.94;;;20.02;43.68
40245;BME280;25963;42.694;23.600;2023-03-21T11:17:21;94854.34;;;19.92;42.26
40245;BME280;25963;42.694;23.600;2023-03-21T11:19:58;94843.56;;;20.02;41.28
40245;BME280;25963;42.694;23.600;2023-03-21T11:22:28;94847.75;;;20.09;44.53
40245;BME280;25963;42.694;23.600;2023-03-21T11:25:06;94841.63;;;20.08;38.57
40245;BME280;25963;42.694;23.600;2023-03-21T11:27:33;94833.38;;;20.04;42.17
40245;BME280;25963;42.694;23.600;2023-03-21T11:30:02;94838.53;;;19.96;37.48
40245;BME280;25963;42.694;23.600;2023-03-21T11:32:32;94837.28;;;19.88;38.22
40245;BME280;25963;42.694;23.600;2023-03-21T11:37:37;94825.59;;;20.03;40.67
40245;BME280;25963;42.694;23.600;2023-03-21T11:40:18;94811.63;;;19.82;39.12
40245;BME280;25963;42.694;23.600;2023-03-21T11:42:47;94817.97;;;19.91;41.18
40245;BME280;25963;42.694;23.600;2023-03-21T11:47:44;94788.06;;;19.84;42.55
40245;BME280;25963;42.694;23.600;2023-03-21T11:55:41;94801.84;;;19.96;38.52
40245;BME280;25963;42.694;23.600;2023-03-21T12:00:55;94781.94;;;19.54;39.45
40245;BME280;25963;42.694;23.600;2023-03-21T12:03:46;94793.19;;;20.04;42.41
40245;BME280;25963;42.694;23.600;2023-03-21T12:14:43;94783.28;;;20.05;39.85
40245;BME280;25963;42.694;23.600;2023-03-21T12:17:35;94781.28;;;19.68;38.08
40245;BME280;25963;42.694;23.600;2023-03-21T12:25:25;94755.22;;;19.78;38.42
40245;BME280;25963;42.694;23.600;2023-03-21T12:31:03;94769.00;;;19.91;39.43
40245;BME280;25963;42.694;23.600;2023-03-21T12:34:05;94775.75;;;19.83;39.11
40245;BME280;25963;42.694;23.600;2023-03-21T12:39:33;94766.16;;;20.25;38.85
40245;BME280;25963;42.694;23.600;2023-03-21T12:42:10;94768.69;;;20.16;35.95
40245;BME280;25963;42.694;23.600;2023-03-21T12:44:50;94769.94;;;20.24;37.25
40245;BME280;25963;42.694;23.600;2023-03-21T12:47:24;94759.09;;;20.34;37.31
40245;BME280;25963;42.694;23.600;2023-03-21T12:50:03;94750.59;;;20.27;39.57
40245;BME280;25963;42.694;23.600;2023-03-21T12:52:40;94742.78;;;20.30;37.85
40245;BME280;25963;42.694;23.600;2023-03-21T12:55:18;94739.63;;;20.47;35.55
40245;BME280;25963;42.694;23.600;2023-03-21T12:57:52;94712.69;;;20.39;37.65
40245;BME280;25963;42.694;23.600;2023-03-21T13:00:24;94732.53;;;20.57;40.16
40245;BME280;25963;42.694;23.600;2023-03-21T13:03:01;94727.91;;;20.62;39.59
40245;BME280;25963;42.694;23.600;2023-03-21T13:05:32;94727.59;;;20.83;38.21
40245;BME280;25963;42.694;23.600;2023-03-21T13:10:29;94726.25;;;20.99;38.25
40245;BME280;25963;42.694;23.600;2023-03-21T13:13:38;94724.88;;;21.02;37.30
40245;BME280;25963;42.694;23.600;2023-03-21T13:21:36;94722.91;;;21.07;33.76
40245;BME280;25963;42.694;23.600;2023-03-21T13:26:46;94712.72;;;21.23;34.78
40245;BME280;25963;42.694;23.600;2023-03-21T13:29:26;94711.06;;;20.19;34.20
40245;BME280;25963;42.694;23.600;2023-03-21T13:31:54;94722.56;;;19.76;34.85
40245;BME280;25963;42.694;23.600;2023-03-21T13:34:24;94717.72;;;20.02;35.02
40245;BME280;25963;42.694;23.600;2023-03-21T13:36:51;94704.34;;;20.21;35.12
40245;BME280;25963;42.694;23.600;2023-03-21T13:39:25;94704.97;;;20.13;34.19
40245;BME280;25963;42.694;23.600;2023-03-21T13:41:51;94703.13;;;20.14;37.45
40245;BME280;25963;42.694;23.600;2023-03-21T13:44:32;94706.28;;;19.49;39.15
40245;BME280;25963;42.694;23.600;2023-03-21T13:47:05;94708.13;;;19.24;37.63
40245;BME280;25963;42.694;23.600;2023-03-21T13:55:39;94708.63;;;18.63;40.27
40245;BME280;25963;42.694;23.600;2023-03-21T13:58:39;94703.63;;;18.51;40.14
40245;BME280;25963;42.694;23.600;2023-03-21T14:01:30;94709.69;;;18.22;39.97
40245;BME280;25963;42.694;23.600;2023-03-21T14:04:19;94710.28;;;18.14;40.21
40245;BME280;25963;42.694;23.600;2023-03-21T14:09:21;94700.94;;;18.51;40.93
40245;BME280;25963;42.694;23.600;2023-03-21T14:11:50;94700.50;;;18.39;38.23
40245;BME280;25963;42.694;23.600;2023-03-21T14:19:29;94672.88;;;18.19;41.03
40245;BME280;25963;42.694;23.600;2023-03-21T14:21:55;94699.09;;;18.07;40.54
40245;BME280;25963;42.694;23.600;2023-03-21T14:24:21;94695.06;;;18.15;40.97
40245;BME280;25963;42.694;23.600;2023-03-21T14:26:49;94701.19;;;18.15;41.42
40245;BME280;25963;42.694;23.600;2023-03-21T14:29:30;94703.97;;;17.95;41.57
40245;BME280;25963;42.694;23.600;2023-03-21T14:31:58;94697.09;;;17.78;41.48
40245;BME280;25963;42.694;23.600;2023-03-21T14:34:26;94708.59;;;17.58;42.19
40245;BME280;25963;42.694;23.600;2023-03-21T14:36:52;94699.81;;;17.63;41.49
40245;BME280;25963;42.694;23.600;2023-03-21T14:39:23;94681.28;;;17.12;41.98
40245;BME280;25963;42.694;23.600;2023-03-21T14:41:55;94700.41;;;17.34;43.55
40245;BME280;25963;42.694;23.600;2023-03-21T14:44:32;94697.00;;;17.24;42.78
40245;BME280;25963;42.694;23.600;2023-03-21T14:47:16;94701.00;;;17.21;43.10
40245;BME280;25963;42.694;23.600;2023-03-21T14:49:42;94687.69;;;17.01;43.20
40245;BME280;25963;42.694;23.600;2023-03-21T14:52:15;94693.56;;;16.82;43.54